sensor_id;sensor_type;location;lat;lon;timestamp;pressure;altitude;pressure_sealevel;temperature;humidity
44140;BME280;29803;51.048;4.686;2023-12-20T00:00:39;101746.56;;;7.04;100.00
44140;BME280;29803;51.048;4.686;2023-12-20T00:03:10;101744.34;;;6.97;100.00
44140;BME280;29803;51.048;4.686;2023-12-20T00:05:40;101757.47;;;6.89;100.00
44140;BME280;29803;51.048;4.686;2023-12-20T00:08:11;101771.28;;;6.94;100.00
44140;BME280;29803;51.048;4.686;2023-12-20T00:10:43;101757.69;;;6.97;100.00
44140;BME280;29803;51.048;4.686;2023-12-20T00:13:14;101754.31;;;6.95;100.00
44140;BME280;29803;51.048;4.686;2023-12-20T00:15:44;101759.03;;;6.92;100.00
44140;BME280;29803;51.048;4.686;2023-12-20T00:18:14;101775.16;;;6.90;100.00
44140;BME280;29803;51.048;4.686;2023-12-20T00:20:45;101778.06;;;6.87;100.00
44140;BME280;29803;51.048;4.686;2023-12-20T00:23:15;101774.06;;;6.82;100.00
44140;BME280;29803;51.048;4.686;2023-12-20T00:25:46;101753.91;;;6.66;100.00
44140;BME280;29803;51.048;4.686;2023-12-20T00:28:17;101764.34;;;6.69;100.00
44140;BME280;29803;51.048;4.686;2023-12-20T00:30:47;101759.75;;;6.71;100.00
44140;BME280;29803;51.048;4.686;2023-12-20T00:33:18;101760.59;;;6.72;100.00
44140;BME280;29803;51.048;4.686;2023-12-20T00:35:49;101765.56;;;6.65;100.00
44140;BME280;29803;51.048;4.686;2023-12-20T00:38:19;101764.09;;;6.61;100.00
44140;BME280;29803;51.048;4.686;2023-12-20T00:40:50;101766.25;;;6.56;100.00
44140;BME280;29803;51.048;4.686;2023-12-20T00:43:20;101765.53;;;6.54;100.00
44140;BME280;29803;51.048;4.686;2023-12-20T00:45:51;101761.78;;;6.57;100.00
44140;BME280;29803;51.048;4.686;2023-12-20T00:48:21;101763.22;;;6.49;100.00
44140;BME280;29803;51.048;4.686;2023-12-20T00:50:52;101761.03;;;6.43;100.00
44140;BME280;29803;51.048;4.686;2023-12-20T00:53:22;101757.59;;;6.30;100.00
44140;BME280;29803;51.048;4.686;2023-12-20T00:55:53;101748.91;;;6.39;100.00
44140;BME280;29803;51.048;4.686;2023-12-20T00:58:23;101749.88;;;6.38;100.00
44140;BME280;29803;51.048;4.686;2023-12-20T01:00:54;101742.38;;;6.43;100.00
44140;BME280;29803;51.048;4.686;2023-12-20T01:03:24;101734.38;;;6.43;100.00
44140;BME280;29803;51.048;4.686;2023-12-20T01:05:55;101745.25;;;6.29;100.00
44140;BME280;29803;51.048;4.686;2023-12-20T01:08:25;101748.78;;;6.41;100.00
44140;BME280;29803;51.048;4.686;2023-12-20T01:10:56;101746.38;;;6.38;100.00
44140;BME280;29803;51.048;4.686;2023-12-20T01:13:26;101762.59;;;6.46;100.00
44140;BME280;29803;51.048;4.686;2023-12-20T01:15:57;101758.78;;;6.26;100.00
44140;BME280;29803;51.048;4.686;2023-12-20T01:18:27;101770.53;;;6.23;100.00
44140;BME280;29803;51.048;4.686;2023-12-20T01:21:02;101762.69;;;6.33;100.00
44140;BME280;29803;51.048;4.686;2023-12-20T01:23:33;101767.41;;;6.30;100.00
44140;BME280;29803;51.048;4.686;2023-12-20T01:26:03;101767.28;;;6.31;100.00
44140;BME280;29803;51.048;4.686;2023-12-20T01:28:35;101765.44;;;6.20;100.00
44140;BME280;29803;51.048;4.686;2023-12-20T01:31:06;101767.53;;;6.28;100.00
44140;BME280;29803;51.048;4.686;2023-12-20T01:33:36;101763.22;;;6.14;100.00
44140;BME280;29803;51.048;4.686;2023-12-20T01:36:07;101771.13;;;6.27;100.00
44140;BME280;29803;51.048;4.686;2023-12-20T01:38:38;101772.88;;;6.28;100.00
44140;BME280;29803;51.048;4.686;2023-12-20T01:41:08;101775.13;;;6.21;100.00
44140;BME280;29803;51.048;4.686;2023-12-20T01:43:39;101773.94;;;6.26;100.00
44140;BME280;29803;51.048;4.686;2023-12-20T01:46:09;101766.78;;;6.26;100.00
44140;BME280;29803;51.048;4.686;2023-12-20T01:48:41;101778.53;;;6.23;100.00
44140;BME280;29803;51.048;4.686;2023-12-20T01:51:12;101782.16;;;6.22;100.00
44140;BME280;29803;51.048;4.686;2023-12-20T01:53:43;101774.28;;;6.21;100.00
44140;BME280;29803;51.048;4.686;2023-12-20T01:56:14;101769.19;;;6.18;100.00
44140;BME280;29803;51.048;4.686;2023-12-20T01:58:46;101780.91;;;6.15;100.00
44140;BME280;29803;51.048;4.686;2023-12-20T02:01:17;101778.97;;;6.17;100.00
44140;BME280;29803;51.048;4.686;2023-12-20T02:03:49;101776.16;;;6.08;100.00
44140;BME280;29803;51.048;4.686;2023-12-20T02:06:21;101786.53;;;6.23;100.00
44140;BME280;29803;51.048;4.686;2023-12-20T02:08:59;101775.88;;;6.23;100.00
44140;BME280;29803;51.048;4.686;2023-12-20T02:11:30;101781.53;;;6.19;100.00
44140;BME280;29803;51.048;4.686;2023-12-20T02:14:01;101771.72;;;6.19;100.00
44140;BME280;29803;51.048;4.686;2023-12-20T02:16:32;101784.31;;;6.17;100.00
44140;BME280;29803;51.048;4.686;2023-12-20T02:19:04;101777.97;;;6.07;100.00
44140;BME280;29803;51.048;4.686;2023-12-20T02:21:39;101781.00;;;6.03;100.00
44140;BME280;29803;51.048;4.686;2023-12-20T02:24:10;101780.75;;;6.06;100.00
44140;BME280;29803;51.048;4.686;2023-12-20T02:26:41;101779.69;;;6.08;100.00
44140;BME280;29803;51.048;4.686;2023-12-20T02:29:11;101786.13;;;6.17;100.00
44140;BME280;29803;51.048;4.686;2023-12-20T02:31:42;101782.56;;;6.40;100.00
44140;BME280;29803;51.048;4.686;2023-12-20T02:34:13;101784.56;;;6.49;100.00
44140;BME280;29803;51.048;4.686;2023-12-20T02:36:43;101787.56;;;6.45;100.00
44140;BME280;29803;51.048;4.686;2023-12-20T02:39:14;101777.53;;;6.60;100.00
44140;BME280;29803;51.048;4.686;2023-12-20T02:41:44;101779.72;;;6.55;100.00
44140;BME280;29803;51.048;4.686;2023-12-20T02:44:15;101781.69;;;6.64;100.00
44140;BME280;29803;51.048;4.686;2023-12-20T02:46:45;101787.00;;;6.64;100.00
44140;BME280;29803;51.048;4.686;2023-12-20T02:49:16;101793.34;;;6.74;100.00
44140;BME280;29803;51.048;4.686;2023-12-20T02:51:47;101783.53;;;6.74;100.00
44140;BME280;29803;51.048;4.686;2023-12-20T02:54:17;101788.47;;;6.68;100.00
44140;BME280;29803;51.048;4.686;2023-12-20T02:56:48;101782.03;;;6.59;100.00
44140;BME280;29803;51.048;4.686;2023-12-20T02:59:19;101784.06;;;6.56;100.00
44140;BME280;29803;51.048;4.686;2023-12-20T03:01:49;101789.19;;;6.59;100.00
44140;BME280;29803;51.048;4.686;2023-12-20T03:04:20;101785.53;;;6.60;100.00
44140;BME280;29803;51.048;4.686;2023-12-20T03:06:50;101780.94;;;6.62;100.00
44140;BME280;29803;51.048;4.686;2023-12-20T03:09:21;101772.94;;;6.62;100.00
44140;BME280;29803;51.048;4.686;2023-12-20T03:11:52;101768.00;;;6.68;100.00
44140;BME280;29803;51.048;4.686;2023-12-20T03:14:23;101770.53;;;6.70;100.00
44140;BME280;29803;51.048;4.686;2023-12-20T03:17:02;101774.53;;;6.75;100.00
44140;BME280;29803;51.048;4.686;2023-12-20T03:19:32;101769.22;;;6.87;100.00
44140;BME280;29803;51.048;4.686;2023-12-20T03:22:12;101763.03;;;6.86;100.00
44140;BME280;29803;51.048;4.686;2023-12-20T03:24:43;101759.16;;;6.90;100.00
44140;BME280;29803;51.048;4.686;2023-12-20T03:27:13;101756.50;;;6.90;100.00
44140;BME280;29803;51.048;4.686;2023-12-20T03:29:47;101762.81;;;7.00;100.00
44140;BME280;29803;51.048;4.686;2023-12-20T03:32:18;101757.25;;;7.04;100.00
44140;BME280;29803;51.048;4.686;2023-12-20T03:34:48;101763.16;;;7.07;100.00
44140;BME280;29803;51.048;4.686;2023-12-20T03:37:23;101768.13;;;7.00;100.00
44140;BME280;29803;51.048;4.686;2023-12-20T03:39:55;101762.56;;;7.04;100.00
44140;BME280;29803;51.048;4.686;2023-12-20T03:42:26;101764.97;;;7.07;100.00
44140;BME280;29803;51.048;4.686;2023-12-20T03:44:56;101776.88;;;7.03;100.00
44140;BME280;29803;51.048;4.686;2023-12-20T03:47:26;101781.47;;;7.00;100.00
44140;BME280;29803;51.048;4.686;2023-12-20T03:49:57;101774.69;;;7.08;100.00
44140;BME280;29803;51.048;4.686;2023-12-20T03:52:27;101777.47;;;7.06;100.00
44140;BME280;29803;51.048;4.686;2023-12-20T03:54:58;101778.72;;;7.13;100.00
44140;BME280;29803;51.048;4.686;2023-12-20T03:57:28;101768.03;;;7.13;100.00
44140;BME280;29803;51.048;4.686;2023-12-20T03:59:59;101772.13;;;7.17;100.00
44140;BME280;29803;51.048;4.686;2023-12-20T04:02:29;101758.06;;;7.15;100.00
44140;BME280;29803;51.048;4.686;2023-12-20T04:05:00;101747.75;;;7.11;100.00
44140;BME280;29803;51.048;4.686;2023-12-20T04:07:30;101752.38;;;7.09;100.00
44140;BME280;29803;51.048;4.686;2023-12-20T04:10:01;101757.81;;;7.07;100.00
44140;BME280;29803;51.048;4.686;2023-12-20T04:12:32;101761.72;;;7.03;100.00
44140;BME280;29803;51.048;4.686;2023-12-20T04:15:04;101759.78;;;7.05;100.00
44140;BME280;29803;51.048;4.686;2023-12-20T04:17:39;101758.66;;;7.08;100.00
44140;BME280;29803;51.048;4.686;2023-12-20T04:20:10;101768.41;;;7.09;100.00
44140;BME280;29803;51.048;4.686;2023-12-20T04:22:40;101763.66;;;7.01;100.00
44140;BME280;29803;51.048;4.686;2023-12-20T04:25:12;101763.53;;;7.03;100.00
44140;BME280;29803;51.048;4.686;2023-12-20T04:27:43;101766.19;;;7.03;100.00
44140;BME280;29803;51.048;4.686;2023-12-20T04:30:14;101783.44;;;6.98;100.00
44140;BME280;29803;51.048;4.686;2023-12-20T04:32:44;101774.59;;;6.98;100.00
44140;BME280;29803;51.048;4.686;2023-12-20T04:35:15;101774.81;;;6.95;100.00
44140;BME280;29803;51.048;4.686;2023-12-20T04:37:45;101755.16;;;6.85;100.00
44140;BME280;29803;51.048;4.686;2023-12-20T04:40:16;101764.22;;;6.82;100.00
44140;BME280;29803;51.048;4.686;2023-12-20T04:42:46;101762.81;;;6.78;100.00
44140;BME280;29803;51.048;4.686;2023-12-20T04:45:17;101774.91;;;6.82;100.00
44140;BME280;29803;51.048;4.686;2023-12-20T04:47:50;101777.84;;;6.90;100.00
44140;BME280;29803;51.048;4.686;2023-12-20T04:50:20;101771.16;;;6.85;100.00
44140;BME280;29803;51.048;4.686;2023-12-20T04:52:51;101772.84;;;6.86;100.00
44140;BME280;29803;51.048;4.686;2023-12-20T04:55:22;101764.84;;;6.86;100.00
44140;BME280;29803;51.048;4.686;2023-12-20T04:57:53;101765.09;;;6.83;100.00
44140;BME280;29803;51.048;4.686;2023-12-20T05:00:23;101769.47;;;6.84;100.00
44140;BME280;29803;51.048;4.686;2023-12-20T05:02:54;101764.13;;;6.84;100.00
44140;BME280;29803;51.048;4.686;2023-12-20T05:05:24;101764.22;;;6.82;100.00
44140;BME280;29803;51.048;4.686;2023-12-20T05:07:55;101769.47;;;6.84;100.00
44140;BME280;29803;51.048;4.686;2023-12-20T05:10:25;101765.09;;;6.83;100.00
44140;BME280;29803;51.048;4.686;2023-12-20T05:12:57;101756.72;;;6.76;100.00
44140;BME280;29803;51.048;4.686;2023-12-20T05:15:27;101773.34;;;6.68;100.00
44140;BME280;29803;51.048;4.686;2023-12-20T05:17:58;101765.44;;;6.67;100.00
44140;BME280;29803;51.048;4.686;2023-12-20T05:20:28;101757.78;;;6.62;100.00
44140;BME280;29803;51.048;4.686;2023-12-20T05:22:59;101767.00;;;6.58;100.00
44140;BME280;29803;51.048;4.686;2023-12-20T05:25:29;101761.53;;;6.48;100.00
44140;BME280;29803;51.048;4.686;2023-12-20T05:28:00;101760.69;;;6.48;100.00
44140;BME280;29803;51.048;4.686;2023-12-20T05:30:30;101751.09;;;6.45;100.00
44140;BME280;29803;51.048;4.686;2023-12-20T05:33:01;101749.63;;;6.41;100.00
44140;BME280;29803;51.048;4.686;2023-12-20T05:35:31;101758.13;;;6.46;100.00
44140;BME280;29803;51.048;4.686;2023-12-20T05:38:02;101755.69;;;6.43;100.00
44140;BME280;29803;51.048;4.686;2023-12-20T05:40:32;101753.25;;;6.40;100.00
44140;BME280;29803;51.048;4.686;2023-12-20T05:43:03;101762.22;;;6.39;100.00
44140;BME280;29803;51.048;4.686;2023-12-20T05:45:34;101758.81;;;6.37;100.00
44140;BME280;29803;51.048;4.686;2023-12-20T05:48:05;101752.03;;;6.33;100.00
44140;BME280;29803;51.048;4.686;2023-12-20T05:50:35;101766.47;;;6.42;100.00
44140;BME280;29803;51.048;4.686;2023-12-20T05:53:06;101768.63;;;6.37;100.00
44140;BME280;29803;51.048;4.686;2023-12-20T05:55:37;101779.41;;;6.35;100.00
44140;BME280;29803;51.048;4.686;2023-12-20T05:58:07;101775.91;;;6.35;100.00
44140;BME280;29803;51.048;4.686;2023-12-20T06:00:38;101773.47;;;6.32;100.00
44140;BME280;29803;51.048;4.686;2023-12-20T06:03:08;101779.38;;;6.24;100.00
44140;BME280;29803;51.048;4.686;2023-12-20T06:05:39;101784.25;;;6.30;100.00
44140;BME280;29803;51.048;4.686;2023-12-20T06:08:10;101787.28;;;6.37;100.00
44140;BME280;29803;51.048;4.686;2023-12-20T06:10:40;101780.13;;;6.37;100.00
44140;BME280;29803;51.048;4.686;2023-12-20T06:13:11;101790.44;;;6.42;100.00
44140;BME280;29803;51.048;4.686;2023-12-20T06:15:43;101795.59;;;6.56;100.00
44140;BME280;29803;51.048;4.686;2023-12-20T06:18:13;101797.75;;;6.51;100.00
44140;BME280;29803;51.048;4.686;2023-12-20T06:20:44;101799.44;;;6.52;100.00
44140;BME280;29803;51.048;4.686;2023-12-20T06:23:15;101800.91;;;6.56;100.00
44140;BME280;29803;51.048;4.686;2023-12-20T06:25:45;101798.03;;;6.59;100.00
44140;BME280;29803;51.048;4.686;2023-12-20T06:28:16;101801.91;;;6.66;100.00
44140;BME280;29803;51.048;4.686;2023-12-20T06:30:46;101803.75;;;6.77;100.00
44140;BME280;29803;51.048;4.686;2023-12-20T06:33:19;101802.88;;;6.65;100.00
44140;BME280;29803;51.048;4.686;2023-12-20T06:35:51;101801.34;;;6.74;100.00
44140;BME280;29803;51.048;4.686;2023-12-20T06:38:22;101804.72;;;6.76;100.00
44140;BME280;29803;51.048;4.686;2023-12-20T06:40:53;101802.91;;;6.77;100.00
44140;BME280;29803;51.048;4.686;2023-12-20T06:43:24;101788.56;;;6.55;100.00
44140;BME280;29803;51.048;4.686;2023-12-20T06:45:54;101779.00;;;6.64;100.00
44140;BME280;29803;51.048;4.686;2023-12-20T06:48:25;101783.16;;;6.68;100.00
44140;BME280;29803;51.048;4.686;2023-12-20T06:50:55;101782.41;;;6.66;100.00
44140;BME280;29803;51.048;4.686;2023-12-20T06:53:26;101775.84;;;6.59;100.00
44140;BME280;29803;51.048;4.686;2023-12-20T06:55:57;101785.41;;;6.61;100.00
44140;BME280;29803;51.048;4.686;2023-12-20T06:58:27;101781.53;;;6.54;100.00
44140;BME280;29803;51.048;4.686;2023-12-20T07:00:58;101780.44;;;6.57;100.00
44140;BME280;29803;51.048;4.686;2023-12-20T07:03:28;101777.59;;;6.36;100.00
44140;BME280;29803;51.048;4.686;2023-12-20T07:05:59;101779.44;;;6.46;100.00
44140;BME280;29803;51.048;4.686;2023-12-20T07:08:29;101785.34;;;6.28;100.00
44140;BME280;29803;51.048;4.686;2023-12-20T07:11:00;101783.75;;;6.25;100.00
44140;BME280;29803;51.048;4.686;2023-12-20T07:13:30;101780.38;;;6.34;100.00
44140;BME280;29803;51.048;4.686;2023-12-20T07:16:01;101783.06;;;6.34;100.00
44140;BME280;29803;51.048;4.686;2023-12-20T07:18:32;101776.53;;;6.38;100.00
44140;BME280;29803;51.048;4.686;2023-12-20T07:21:02;101783.78;;;6.36;100.00
44140;BME280;29803;51.048;4.686;2023-12-20T07:23:33;101778.75;;;6.20;100.00
44140;BME280;29803;51.048;4.686;2023-12-20T07:26:04;101788.59;;;6.31;100.00
44140;BME280;29803;51.048;4.686;2023-12-20T07:28:34;101784.94;;;6.21;100.00
44140;BME280;29803;51.048;4.686;2023-12-20T07:31:05;101791.59;;;6.27;100.00
44140;BME280;29803;51.048;4.686;2023-12-20T07:33:36;101778.97;;;6.17;100.00
44140;BME280;29803;51.048;4.686;2023-12-20T07:36:06;101774.44;;;6.07;100.00
44140;BME280;29803;51.048;4.686;2023-12-20T07:38:37;101768.88;;;5.99;100.00
44140;BME280;29803;51.048;4.686;2023-12-20T07:41:09;101765.50;;;6.08;100.00
44140;BME280;29803;51.048;4.686;2023-12-20T07:43:41;101773.84;;;6.03;100.00
44140;BME280;29803;51.048;4.686;2023-12-20T07:46:11;101782.56;;;6.05;100.00
44140;BME280;29803;51.048;4.686;2023-12-20T07:48:42;101779.91;;;6.05;100.00
44140;BME280;29803;51.048;4.686;2023-12-20T07:51:12;101782.78;;;6.26;100.00
44140;BME280;29803;51.048;4.686;2023-12-20T07:53:43;101780.88;;;6.39;100.00
44140;BME280;29803;51.048;4.686;2023-12-20T07:56:15;101786.38;;;6.49;100.00
44140;BME280;29803;51.048;4.686;2023-12-20T07:58:46;101788.41;;;6.45;100.00
44140;BME280;29803;51.048;4.686;2023-12-20T08:01:18;101788.53;;;6.44;100.00
44140;BME280;29803;51.048;4.686;2023-12-20T08:03:49;101786.78;;;6.32;100.00
44140;BME280;29803;51.048;4.686;2023-12-20T08:06:21;101791.44;;;6.52;100.00
44140;BME280;29803;51.048;4.686;2023-12-20T08:08:51;101798.28;;;6.32;100.00
44140;BME280;29803;51.048;4.686;2023-12-20T08:11:22;101802.41;;;6.25;100.00
44140;BME280;29803;51.048;4.686;2023-12-20T08:13:52;101809.84;;;6.44;100.00
44140;BME280;29803;51.048;4.686;2023-12-20T08:16:23;101809.25;;;6.52;100.00
44140;BME280;29803;51.048;4.686;2023-12-20T08:18:53;101805.19;;;6.59;100.00
44140;BME280;29803;51.048;4.686;2023-12-20T08:21:24;101791.53;;;6.74;100.00
44140;BME280;29803;51.048;4.686;2023-12-20T08:23:54;101800.03;;;7.02;100.00
44140;BME280;29803;51.048;4.686;2023-12-20T08:26:25;101800.78;;;7.04;100.00
44140;BME280;29803;51.048;4.686;2023-12-20T08:28:55;101796.78;;;7.10;100.00
44140;BME280;29803;51.048;4.686;2023-12-20T08:31:26;101803.09;;;7.09;100.00
44140;BME280;29803;51.048;4.686;2023-12-20T08:33:56;101789.03;;;7.18;100.00
44140;BME280;29803;51.048;4.686;2023-12-20T08:36:27;101784.28;;;7.10;100.00
44140;BME280;29803;51.048;4.686;2023-12-20T08:38:57;101786.19;;;6.97;100.00
44140;BME280;29803;51.048;4.686;2023-12-20T08:41:28;101783.25;;;6.78;100.00
44140;BME280;29803;51.048;4.686;2023-12-20T08:43:58;101787.75;;;6.77;100.00
44140;BME280;29803;51.048;4.686;2023-12-20T08:46:29;101798.81;;;6.84;100.00
44140;BME280;29803;51.048;4.686;2023-12-20T08:48:59;101792.03;;;7.02;100.00
44140;BME280;29803;51.048;4.686;2023-12-20T08:51:30;101790.47;;;7.33;100.00
44140;BME280;29803;51.048;4.686;2023-12-20T08:54:01;101788.38;;;7.48;100.00
44140;BME280;29803;51.048;4.686;2023-12-20T08:56:32;101786.28;;;7.63;100.00
44140;BME280;29803;51.048;4.686;2023-12-20T08:59:02;101784.66;;;7.83;100.00
44140;BME280;29803;51.048;4.686;2023-12-20T09:01:33;101780.88;;;7.96;100.00
44140;BME280;29803;51.048;4.686;2023-12-20T09:04:03;101783.13;;;8.12;100.00
44140;BME280;29803;51.048;4.686;2023-12-20T09:06:34;101788.22;;;8.15;100.00
44140;BME280;29803;51.048;4.686;2023-12-20T09:09:04;101789.91;;;8.16;100.00
44140;BME280;29803;51.048;4.686;2023-12-20T09:11:36;101785.06;;;8.42;100.00
44140;BME280;29803;51.048;4.686;2023-12-20T09:14:07;101787.25;;;8.48;100.00
44140;BME280;29803;51.048;4.686;2023-12-20T09:16:37;101785.59;;;8.36;100.00
44140;BME280;29803;51.048;4.686;2023-12-20T09:19:08;101779.09;;;8.50;100.00
44140;BME280;29803;51.048;4.686;2023-12-20T09:21:38;101786.34;;;8.59;100.00
44140;BME280;29803;51.048;4.686;2023-12-20T09:24:09;101787.63;;;8.86;100.00
44140;BME280;29803;51.048;4.686;2023-12-20T09:26:39;101787.78;;;8.84;100.00
44140;BME280;29803;51.048;4.686;2023-12-20T09:29:10;101780.59;;;8.85;100.00
44140;BME280;29803;51.048;4.686;2023-12-20T09:31:45;101792.53;;;8.80;100.00
44140;BME280;29803;51.048;4.686;2023-12-20T09:34:16;101787.50;;;8.87;100.00
44140;BME280;29803;51.048;4.686;2023-12-20T09:36:48;101782.88;;;8.89;100.00
44140;BME280;29803;51.048;4.686;2023-12-20T09:39:19;101777.81;;;8.96;100.00
44140;BME280;29803;51.048;4.686;2023-12-20T09:42:03;101783.47;;;8.72;100.00
44140;BME280;29803;51.048;4.686;2023-12-20T09:44:34;101775.63;;;8.38;100.00
44140;BME280;29803;51.048;4.686;2023-12-20T09:47:06;101780.13;;;8.38;100.00
44140;BME280;29803;51.048;4.686;2023-12-20T09:49:37;101773.75;;;8.50;100.00
44140;BME280;29803;51.048;4.686;2023-12-20T09:52:09;101784.91;;;8.55;100.00
44140;BME280;29803;51.048;4.686;2023-12-20T09:54:42;101782.00;;;8.68;100.00
44140;BME280;29803;51.048;4.686;2023-12-20T09:57:13;101768.63;;;8.68;100.00
44140;BME280;29803;51.048;4.686;2023-12-20T09:59:44;101779.25;;;8.48;100.00
44140;BME280;29803;51.048;4.686;2023-12-20T10:02:17;101769.88;;;8.43;100.00
44140;BME280;29803;51.048;4.686;2023-12-20T10:04:52;101763.47;;;8.34;100.00
44140;BME280;29803;51.048;4.686;2023-12-20T10:07:22;101764.59;;;8.52;100.00
44140;BME280;29803;51.048;4.686;2023-12-20T10:09:54;101768.91;;;8.65;100.00
44140;BME280;29803;51.048;4.686;2023-12-20T10:12:25;101764.56;;;8.64;100.00
44140;BME280;29803;51.048;4.686;2023-12-20T10:14:57;101771.13;;;8.60;100.00
44140;BME280;29803;51.048;4.686;2023-12-20T10:17:28;101765.72;;;8.50;100.00
44140;BME280;29803;51.048;4.686;2023-12-20T10:19:59;101769.44;;;8.59;100.00
44140;BME280;29803;51.048;4.686;2023-12-20T10:22:30;101777.50;;;8.47;100.00
44140;BME280;29803;51.048;4.686;2023-12-20T10:25:00;101774.59;;;8.50;100.00
44140;BME280;29803;51.048;4.686;2023-12-20T10:27:31;101772.84;;;8.61;100.00
44140;BME280;29803;51.048;4.686;2023-12-20T10:30:01;101772.63;;;8.73;100.00
44140;BME280;29803;51.048;4.686;2023-12-20T10:32:32;101758.88;;;8.57;100.00
44140;BME280;29803;51.048;4.686;2023-12-20T10:35:03;101763.63;;;8.74;100.00
44140;BME280;29803;51.048;4.686;2023-12-20T10:37:36;101764.84;;;8.91;100.00
44140;BME280;29803;51.048;4.686;2023-12-20T10:40:07;101760.19;;;8.93;100.00
44140;BME280;29803;51.048;4.686;2023-12-20T10:42:39;101747.38;;;8.66;100.00
44140;BME280;29803;51.048;4.686;2023-12-20T10:45:11;101760.22;;;8.72;100.00
44140;BME280;29803;51.048;4.686;2023-12-20T10:47:42;101745.91;;;8.83;100.00
44140;BME280;29803;51.048;4.686;2023-12-20T10:50:14;101754.81;;;8.84;100.00
44140;BME280;29803;51.048;4.686;2023-12-20T10:52:46;101753.81;;;8.85;100.00
44140;BME280;29803;51.048;4.686;2023-12-20T10:55:17;101744.97;;;8.84;100.00
44140;BME280;29803;51.048;4.686;2023-12-20T10:57:49;101736.09;;;8.84;100.00
44140;BME280;29803;51.048;4.686;2023-12-20T11:00:23;101751.31;;;8.93;100.00
44140;BME280;29803;51.048;4.686;2023-12-20T11:02:54;101721.34;;;8.68;100.00
44140;BME280;29803;51.048;4.686;2023-12-20T11:05:44;101728.72;;;8.76;100.00
44140;BME280;29803;51.048;4.686;2023-12-20T11:11:06;101712.91;;;8.73;100.00
44140;BME280;29803;51.048;4.686;2023-12-20T11:13:41;101711.38;;;8.70;100.00
44140;BME280;29803;51.048;4.686;2023-12-20T11:16:14;101705.88;;;8.72;100.00
44140;BME280;29803;51.048;4.686;2023-12-20T11:18:45;101704.09;;;8.82;100.00
44140;BME280;29803;51.048;4.686;2023-12-20T11:21:15;101710.69;;;8.78;100.00
44140;BME280;29803;51.048;4.686;2023-12-20T11:23:46;101712.84;;;8.84;100.00
44140;BME280;29803;51.048;4.686;2023-12-20T11:26:22;101707.56;;;8.73;100.00
44140;BME280;29803;51.048;4.686;2023-12-20T11:34:59;101708.59;;;8.81;100.00
44140;BME280;29803;51.048;4.686;2023-12-20T11:37:31;101702.69;;;8.88;100.00
44140;BME280;29803;51.048;4.686;2023-12-20T11:40:11;101713.09;;;8.81;100.00
44140;BME280;29803;51.048;4.686;2023-12-20T11:42:43;101704.09;;;8.82;100.00
44140;BME280;29803;51.048;4.686;2023-12-20T11:45:15;101692.78;;;8.78;100.00
44140;BME280;29803;51.048;4.686;2023-12-20T11:47:48;101694.63;;;8.78;100.00
44140;BME280;29803;51.048;4.686;2023-12-20T11:50:21;101685.72;;;8.68;100.00
44140;BME280;29803;51.048;4.686;2023-12-20T11:52:52;101677.63;;;8.58;100.00
44140;BME280;29803;51.048;4.686;2023-12-20T11:55:24;101683.44;;;8.63;100.00
44140;BME280;29803;51.048;4.686;2023-12-20T11:57:54;101686.25;;;8.62;100.00
44140;BME280;29803;51.048;4.686;2023-12-20T12:00:26;101688.38;;;8.68;100.00
44140;BME280;29803;51.048;4.686;2023-12-20T12:02:58;101672.88;;;8.62;100.00
44140;BME280;29803;51.048;4.686;2023-12-20T12:05:30;101667.97;;;8.67;100.00
44140;BME280;29803;51.048;4.686;2023-12-20T12:08:02;101685.25;;;8.63;100.00
44140;BME280;29803;51.048;4.686;2023-12-20T12:10:33;101677.06;;;8.54;100.00
44140;BME280;29803;51.048;4.686;2023-12-20T12:13:03;101679.13;;;8.72;100.00
44140;BME280;29803;51.048;4.686;2023-12-20T12:15:34;101676.19;;;8.75;100.00
44140;BME280;29803;51.048;4.686;2023-12-20T12:18:05;101671.81;;;8.74;100.00
44140;BME280;29803;51.048;4.686;2023-12-20T12:20:36;101664.56;;;8.95;100.00
44140;BME280;29803;51.048;4.686;2023-12-20T12:23:06;101662.97;;;8.83;100.00
44140;BME280;29803;51.048;4.686;2023-12-20T12:25:37;101662.88;;;8.94;100.00
44140;BME280;29803;51.048;4.686;2023-12-20T12:28:07;101657.63;;;8.83;100.00
44140;BME280;29803;51.048;4.686;2023-12-20T12:30:38;101660.72;;;8.88;100.00
44140;BME280;29803;51.048;4.686;2023-12-20T12:33:09;101654.72;;;8.96;100.00
44140;BME280;29803;51.048;4.686;2023-12-20T12:35:40;101659.47;;;8.92;100.00
44140;BME280;29803;51.048;4.686;2023-12-20T12:38:11;101654.97;;;8.93;100.00
44140;BME280;29803;51.048;4.686;2023-12-20T12:40:43;101632.75;;;9.02;100.00
44140;BME280;29803;51.048;4.686;2023-12-20T12:43:13;101624.47;;;9.15;100.00
44140;BME280;29803;51.048;4.686;2023-12-20T12:45:44;101616.31;;;9.26;100.00
44140;BME280;29803;51.048;4.686;2023-12-20T12:48:15;101618.56;;;9.21;100.00
44140;BME280;29803;51.048;4.686;2023-12-20T12:50:46;101625.47;;;9.33;100.00
44140;BME280;29803;51.048;4.686;2023-12-20T12:53:16;101622.97;;;9.51;100.00
44140;BME280;29803;51.048;4.686;2023-12-20T12:55:47;101625.66;;;9.51;100.00
44140;BME280;29803;51.048;4.686;2023-12-20T12:58:18;101630.44;;;9.47;100.00
44140;BME280;29803;51.048;4.686;2023-12-20T13:00:48;101613.94;;;9.42;100.00
44140;BME280;29803;51.048;4.686;2023-12-20T13:03:19;101616.19;;;9.47;100.00
44140;BME280;29803;51.048;4.686;2023-12-20T13:05:49;101612.41;;;9.40;100.00
44140;BME280;29803;51.048;4.686;2023-12-20T13:08:20;101607.59;;;9.43;100.00
44140;BME280;29803;51.048;4.686;2023-12-20T13:10:51;101600.53;;;9.62;100.00
44140;BME280;29803;51.048;4.686;2023-12-20T13:13:21;101601.97;;;9.56;100.00
44140;BME280;29803;51.048;4.686;2023-12-20T13:15:52;101589.00;;;9.51;100.00
44140;BME280;29803;51.048;4.686;2023-12-20T13:18:25;101591.94;;;9.48;100.00